createdAt,value
2017-12-25T00:01:40.494Z,27.07
2017-12-25T00:04:08.050Z,29.13
2017-12-25T00:06:35.620Z,29.03
2017-12-25T00:09:03.218Z,32.23
2017-12-25T00:11:30.770Z,31.27
2017-12-25T00:13:58.680Z,30.07
2017-12-25T00:16:26.250Z,24.90
2017-12-25T00:18:53.811Z,17.17
2017-12-25T00:21:21.636Z,12.07
2017-12-25T00:23:49.184Z,9.97
2017-12-25T00:26:16.792Z,5.27
2017-12-25T00:28:44.347Z,7.83
2017-12-25T00:31:12.536Z,10.03
2017-12-25T00:33:40.106Z,20.50
2017-12-25T00:36:07.681Z,15.93
2017-12-25T00:38:35.661Z,13.73
2017-12-25T00:41:03.207Z,19.20
2017-12-25T00:43:30.998Z,20.43
2017-12-25T00:45:58.565Z,18.40
2017-12-25T00:48:26.247Z,17.20
2017-12-25T00:50:53.866Z,15.73
2017-12-25T00:53:21.407Z,14.93
2017-12-25T00:55:48.980Z,15.30
2017-12-25T00:58:16.549Z,14.83
2017-12-25T01:00:44.151Z,13.10
2017-12-25T01:03:11.777Z,12.33
2017-12-25T01:05:39.315Z,8.83
2017-12-25T01:08:06.865Z,8.60
2017-12-25T01:10:34.429Z,8.60
2017-12-25T01:13:02.210Z,11.63
2017-12-25T01:15:30.030Z,12.73
2017-12-25T01:17:57.750Z,10.23
2017-12-25T01:20:25.358Z,7.00
2017-12-25T01:22:52.918Z,7.00
2017-12-25T01:25:20.470Z,5.87
2017-12-25T01:27:48.077Z,4.93
2017-12-25T01:30:15.638Z,4.80
2017-12-25T01:32:43.194Z,4.13
2017-12-25T01:35:10.972Z,4.37
2017-12-25T01:37:38.524Z,4.63
2017-12-25T01:40:06.145Z,4.90
2017-12-25T01:42:33.894Z,5.43
2017-12-25T01:45:01.451Z,5.43
2017-12-25T01:47:29.051Z,15.23
2017-12-25T01:49:56.624Z,10.80
2017-12-25T01:52:24.497Z,13.30
2017-12-25T01:54:52.208Z,13.27
2017-12-25T02:00:55.624Z,5.80
2017-12-25T02:03:23.254Z,7.03
2017-12-25T02:06:00.602Z,4.83
2017-12-25T02:08:34.110Z,8.97
2017-12-25T02:11:01.917Z,7.63
2017-12-25T02:13:29.736Z,7.57
2017-12-25T02:15:57.554Z,12.00
2017-12-25T02:18:25.117Z,10.00
2017-12-25T02:20:52.870Z,7.13
2017-12-25T02:23:20.421Z,5.57
2017-12-25T02:25:48.228Z,6.27
2017-12-25T02:28:16.045Z,9.23
2017-12-25T02:30:43.597Z,18.67
2017-12-25T02:33:11.381Z,18.27
2017-12-25T02:35:39.004Z,18.30
2017-12-25T02:38:06.624Z,17.60
2017-12-25T02:40:34.189Z,17.50
2017-12-25T02:43:01.953Z,14.33
2017-12-25T02:45:29.526Z,13.83
2017-12-25T02:47:57.081Z,18.33
2017-12-25T02:50:24.695Z,18.37
2017-12-25T02:52:52.263Z,17.73
2017-12-25T02:55:19.922Z,20.33
2017-12-25T02:57:47.486Z,21.07
2017-12-25T03:00:15.276Z,19.40
2017-12-25T03:02:42.894Z,20.23
2017-12-25T03:05:10.466Z,18.50
2017-12-25T03:07:38.230Z,18.27
2017-12-25T03:10:05.806Z,16.00
2017-12-25T03:12:33.362Z,14.97
2017-12-25T03:15:00.975Z,15.07
2017-12-25T03:17:28.704Z,13.43
2017-12-25T03:19:56.264Z,14.70
2017-12-25T03:22:24.003Z,14.70
2017-12-25T03:24:51.571Z,13.90
2017-12-25T03:27:19.218Z,12.13
2017-12-25T03:29:46.774Z,13.33
2017-12-25T03:32:14.336Z,14.27
2017-12-25T03:34:42.228Z,22.87
2017-12-25T03:37:10.046Z,16.97
2017-12-25T03:39:37.663Z,16.07
2017-12-25T03:42:05.231Z,14.90
2017-12-25T03:44:32.793Z,15.07
2017-12-25T03:47:00.366Z,20.20
2017-12-25T03:49:28.135Z,26.37
2017-12-25T03:51:55.762Z,24.90
2017-12-25T03:54:23.571Z,26.13
2017-12-25T03:56:51.211Z,28.23
2017-12-25T03:59:18.778Z,20.17
2017-12-25T04:01:46.338Z,31.30
2017-12-25T04:04:13.960Z,22.90
2017-12-25T04:06:41.517Z,26.43
2017-12-25T04:09:09.280Z,60.60
2017-12-25T04:11:36.860Z,50.43
2017-12-25T04:14:04.500Z,35.37
2017-12-25T04:16:32.333Z,29.53
2017-12-25T04:18:59.908Z,29.70
2017-12-25T04:21:27.669Z,27.30
2017-12-25T04:23:55.230Z,21.37
2017-12-25T04:26:22.794Z,16.80
2017-12-25T04:28:50.623Z,18.13
2017-12-25T04:31:18.168Z,25.20
2017-12-25T04:33:45.725Z,24.40
2017-12-25T04:36:13.477Z,24.33
2017-12-25T04:38:41.294Z,24.13
2017-12-25T04:41:08.992Z,21.97
2017-12-25T04:43:36.545Z,17.33
2017-12-25T04:46:04.102Z,17.23
2017-12-25T04:48:31.678Z,33.13
2017-12-25T04:50:59.235Z,29.60
2017-12-25T04:53:27.104Z,23.93
2017-12-25T04:55:54.679Z,22.40
2017-12-25T04:58:22.440Z,25.10
2017-12-25T05:00:50.256Z,20.57
2017-12-25T05:03:17.829Z,18.90
2017-12-25T05:05:45.583Z,21.73
2017-12-25T05:08:13.150Z,21.43
2017-12-25T05:10:40.696Z,21.83
2017-12-25T05:13:08.273Z,18.07
2017-12-25T05:15:35.838Z,19.07
2017-12-25T05:18:03.681Z,18.80
2017-12-25T05:20:31.399Z,24.00
2017-12-25T05:22:59.117Z,28.50
2017-12-25T05:25:26.671Z,25.90
2017-12-25T05:27:54.454Z,21.50
2017-12-25T05:30:22.273Z,17.83
2017-12-25T05:32:49.991Z,15.90
2017-12-25T05:35:17.558Z,15.80
2017-12-25T05:37:45.297Z,20.17
2017-12-25T05:40:12.854Z,32.80
2017-12-25T05:42:40.663Z,27.77
2017-12-25T05:45:08.220Z,41.17
2017-12-25T05:47:35.781Z,34.80
2017-12-25T05:50:03.358Z,29.83
2017-12-25T05:52:30.923Z,30.57
2017-12-25T05:54:58.539Z,44.40
2017-12-25T05:57:26.106Z,38.87
2017-12-25T05:59:53.666Z,37.10
2017-12-25T06:02:21.240Z,31.17
2017-12-25T06:04:49.023Z,28.00
2017-12-25T06:07:16.840Z,19.97
2017-12-25T06:09:44.462Z,18.70
2017-12-25T06:12:12.183Z,20.60
2017-12-25T06:14:39.754Z,62.73
2017-12-25T06:17:07.306Z,50.67
2017-12-25T06:19:34.942Z,50.17
2017-12-25T06:22:02.556Z,83.10
2017-12-25T06:24:30.369Z,52.80
2017-12-25T06:26:57.932Z,54.07
2017-12-25T06:29:25.510Z,50.63
2017-12-25T06:31:53.280Z,29.97
2017-12-25T06:34:20.995Z,25.67
2017-12-25T06:36:48.736Z,22.07
2017-12-25T06:39:16.645Z,28.87
2017-12-25T06:41:44.208Z,22.67
2017-12-25T06:44:11.833Z,23.50
2017-12-25T06:46:39.628Z,36.03
2017-12-25T06:49:07.349Z,38.03
2017-12-25T06:51:34.964Z,32.73
2017-12-25T06:54:02.530Z,32.80
2017-12-25T06:56:30.170Z,29.27
2017-12-25T06:58:57.721Z,32.83
2017-12-25T07:01:25.268Z,37.90
2017-12-25T07:03:52.836Z,37.00
2017-12-25T07:06:20.449Z,34.30
2017-12-25T07:08:48.110Z,34.17
2017-12-25T07:11:15.933Z,35.53
2017-12-25T07:13:43.727Z,32.83
2017-12-25T07:16:11.316Z,34.60
2017-12-25T07:18:39.040Z,37.43
2017-12-25T07:21:06.881Z,32.83
2017-12-25T07:23:34.438Z,33.10
2017-12-25T07:26:02.217Z,31.23
2017-12-25T07:28:29.935Z,38.67
2017-12-25T07:30:57.654Z,42.73
2017-12-25T07:33:25.363Z,405.53
2017-12-25T07:35:52.930Z,232.10
2017-12-25T07:38:20.547Z,42.77
2017-12-25T07:40:48.184Z,42.30
2017-12-25T07:43:15.764Z,34.23
2017-12-25T07:45:43.378Z,33.10
2017-12-25T07:48:11.179Z,27.40
2017-12-25T07:50:38.747Z,25.47
2017-12-25T07:53:06.335Z,143.00
2017-12-25T07:55:33.902Z,26.47
2017-12-25T07:58:01.757Z,24.23
2017-12-25T08:00:29.339Z,123.17
2017-12-25T08:02:56.902Z,24.33
2017-12-25T08:05:24.483Z,22.93
2017-12-25T08:07:52.064Z,21.97
2017-12-25T08:10:19.748Z,23.53
2017-12-25T08:12:47.348Z,19.57
2017-12-25T08:15:14.916Z,16.77
2017-12-25T08:17:42.498Z,18.30
2017-12-25T08:20:10.071Z,18.33
2017-12-25T08:22:37.701Z,17.40
2017-12-25T08:25:05.415Z,17.10
2017-12-25T08:27:33.046Z,20.07
2017-12-25T08:30:00.671Z,15.60
2017-12-25T08:32:28.199Z,13.10
2017-12-25T08:34:55.825Z,10.13
2017-12-25T08:37:23.424Z,13.60
2017-12-25T08:39:50.999Z,13.03
2017-12-25T08:42:18.629Z,12.00
2017-12-25T08:44:46.173Z,12.87
2017-12-25T08:47:13.823Z,19.60
2017-12-25T08:49:41.454Z,19.67
2017-12-25T08:52:09.043Z,20.10
2017-12-25T08:54:36.617Z,14.60
2017-12-25T08:57:04.183Z,16.37
2017-12-25T08:59:31.870Z,15.17
2017-12-25T09:01:59.449Z,11.40
2017-12-25T09:04:27.045Z,20.73
2017-12-25T09:06:54.826Z,11.67
2017-12-25T09:09:22.395Z,14.77
2017-12-25T09:11:50.151Z,12.47
2017-12-25T09:14:17.770Z,20.17
2017-12-25T09:16:45.326Z,8.00
2017-12-25T09:19:12.897Z,7.67
2017-12-25T09:21:40.445Z,5.27
2017-12-25T09:24:08.054Z,5.70
2017-12-25T09:26:35.606Z,4.00
2017-12-25T09:29:03.159Z,4.83
2017-12-25T09:31:30.746Z,2.53
2017-12-25T09:33:58.311Z,2.87
2017-12-25T09:36:26.056Z,3.27
2017-12-25T09:38:53.618Z,3.37
2017-12-25T09:41:21.238Z,5.40
2017-12-25T09:43:48.862Z,1.93
2017-12-25T09:46:16.490Z,3.10
2017-12-25T09:48:44.167Z,3.57
2017-12-25T09:51:11.726Z,2.50
2017-12-25T09:53:39.278Z,2.50
2017-12-25T09:56:06.851Z,2.30
2017-12-25T09:58:34.483Z,3.40
2017-12-25T10:01:02.166Z,2.97
2017-12-25T10:03:29.734Z,2.20
2017-12-25T10:05:57.362Z,2.10
2017-12-25T10:08:25.061Z,2.83
2017-12-25T10:10:52.631Z,6.73
2017-12-25T10:13:20.245Z,4.40
2017-12-25T10:15:47.946Z,3.90
2017-12-25T10:18:15.503Z,3.40
2017-12-25T10:20:43.046Z,4.33
2017-12-25T10:23:10.593Z,2.50
2017-12-25T10:25:38.204Z,2.30
2017-12-25T10:28:05.758Z,4.60
2017-12-25T10:30:33.319Z,3.70
2017-12-25T10:33:00.896Z,4.30
2017-12-25T10:35:28.466Z,4.50
2017-12-25T10:37:56.140Z,3.97
2017-12-25T10:40:23.695Z,1.80
2017-12-25T10:42:51.307Z,3.30
2017-12-25T10:45:18.866Z,4.87
2017-12-25T10:47:46.493Z,2.63
2017-12-25T10:50:14.115Z,2.00
2017-12-25T10:52:41.786Z,3.83
2017-12-25T10:55:09.338Z,1.93
2017-12-25T10:57:36.988Z,4.23
2017-12-25T11:00:04.631Z,4.90
2017-12-25T11:02:32.242Z,4.53
2017-12-25T11:04:59.798Z,2.40
2017-12-25T11:07:27.367Z,1.90
2017-12-25T11:09:54.986Z,4.30
2017-12-25T11:12:22.574Z,3.03
2017-12-25T11:14:50.272Z,2.00
2017-12-25T11:17:17.895Z,2.50
2017-12-25T11:19:46.391Z,2.40
2017-12-25T11:22:14.024Z,2.70
2017-12-25T11:24:41.594Z,7.30
2017-12-25T11:27:09.207Z,2.00
2017-12-25T11:29:36.826Z,2.77
2017-12-25T11:32:04.403Z,6.63
2017-12-25T11:34:32.119Z,4.83
2017-12-25T11:36:59.675Z,2.80
2017-12-25T11:39:27.278Z,2.73
2017-12-25T11:41:54.831Z,2.27
2017-12-25T11:44:22.390Z,2.67
2017-12-25T11:46:50.019Z,2.90
2017-12-25T11:49:17.585Z,2.80
2017-12-25T11:51:45.300Z,4.57
2017-12-25T11:54:12.859Z,4.17
2017-12-25T11:56:40.493Z,1.70
2017-12-25T11:59:08.063Z,3.33
2017-12-25T12:01:35.674Z,5.17
2017-12-25T12:04:03.383Z,6.30
2017-12-25T12:06:30.999Z,5.13
2017-12-25T12:08:58.574Z,4.17
2017-12-25T12:11:26.148Z,2.53
2017-12-25T12:13:53.704Z,3.00
2017-12-25T12:16:21.345Z,5.10
2017-12-25T12:18:48.912Z,2.50
2017-12-25T12:21:16.543Z,2.20
2017-12-25T12:23:44.640Z,1.67
2017-12-25T12:26:12.270Z,2.20
2017-12-25T12:28:39.888Z,2.00
2017-12-25T12:31:07.437Z,2.03
2017-12-25T12:33:35.002Z,2.90
2017-12-25T12:36:02.573Z,1.83
2017-12-25T12:38:30.195Z,2.27
2017-12-25T12:40:57.802Z,3.60
2017-12-25T12:43:25.362Z,4.57
2017-12-25T12:45:52.929Z,2.97
2017-12-25T12:48:20.552Z,3.03
2017-12-25T12:50:48.174Z,2.47
2017-12-25T12:53:15.795Z,2.83
2017-12-25T12:55:43.372Z,4.33
2017-12-25T12:58:11.002Z,5.43
2017-12-25T13:00:38.551Z,4.43
2017-12-25T13:03:06.116Z,2.77
2017-12-25T13:05:33.746Z,4.30
2017-12-25T13:08:01.289Z,3.67
2017-12-25T13:10:28.915Z,5.30
2017-12-25T13:12:56.619Z,2.70
2017-12-25T13:15:24.178Z,4.50
2017-12-25T13:17:51.856Z,2.30
2017-12-25T13:20:19.422Z,4.70
2017-12-25T13:22:46.998Z,2.70
2017-12-25T13:25:14.563Z,8.23
2017-12-25T13:27:42.167Z,2.60
2017-12-25T13:30:09.865Z,3.80
2017-12-25T13:32:37.503Z,3.53
2017-12-25T13:35:05.126Z,2.87
2017-12-25T13:37:32.755Z,2.80
2017-12-25T13:40:00.325Z,15.77
2017-12-25T13:42:28.011Z,25.23
2017-12-25T13:44:55.620Z,4.83
2017-12-25T13:47:23.179Z,5.20
2017-12-25T13:49:50.750Z,5.17
2017-12-25T13:52:18.315Z,4.17
2017-12-25T13:54:45.934Z,5.70
2017-12-25T13:57:13.555Z,9.77
2017-12-25T13:59:41.118Z,5.40
2017-12-25T14:02:08.687Z,3.50
2017-12-25T14:04:36.241Z,3.83
2017-12-25T14:07:03.810Z,4.53
2017-12-25T14:09:31.383Z,6.83
2017-12-25T14:11:58.946Z,5.30
2017-12-25T14:14:26.594Z,21.60
2017-12-25T14:16:54.182Z,20.57
2017-12-25T14:19:21.783Z,26.57
2017-12-25T14:21:49.429Z,21.83
2017-12-25T14:24:17.010Z,34.03
2017-12-25T14:26:44.580Z,47.63
2017-12-25T14:29:12.149Z,86.27
2017-12-25T14:31:39.814Z,91.93
2017-12-25T14:34:07.386Z,37.97
2017-12-25T14:36:34.931Z,36.83
2017-12-25T14:39:02.583Z,90.40
2017-12-25T14:41:30.159Z,364.93
2017-12-25T14:43:57.751Z,195.53
2017-12-25T14:46:25.342Z,98.47
2017-12-25T14:48:53.018Z,62.87
2017-12-25T14:51:20.636Z,48.33
2017-12-25T14:53:48.273Z,60.33
2017-12-25T14:56:15.841Z,34.73
2017-12-25T14:58:43.406Z,45.13
2017-12-25T15:01:11.038Z,59.77
2017-12-25T15:03:38.608Z,60.93
2017-12-25T15:06:06.196Z,48.87
2017-12-25T15:08:33.771Z,71.03
2017-12-25T15:11:01.344Z,55.90
2017-12-25T15:13:28.903Z,60.60
2017-12-25T15:15:56.512Z,42.53
2017-12-25T15:18:24.083Z,59.13
2017-12-25T15:20:51.650Z,59.60
2017-12-25T15:23:19.236Z,73.43
2017-12-25T15:25:46.809Z,36.93
2017-12-25T15:28:14.523Z,71.90
2017-12-25T15:30:42.141Z,62.17
2017-12-25T15:33:09.774Z,135.37
2017-12-25T15:35:37.410Z,108.87
2017-12-25T15:38:04.983Z,79.10
2017-12-25T15:40:32.610Z,54.73
2017-12-25T15:43:00.186Z,105.20
2017-12-25T15:45:27.754Z,66.17
2017-12-25T15:47:55.375Z,39.70
2017-12-25T15:50:22.947Z,35.30
2017-12-25T15:52:50.521Z,22.77
2017-12-25T15:55:18.098Z,59.20
2017-12-25T15:57:45.687Z,184.63
2017-12-25T16:00:13.275Z,86.17
2017-12-25T16:02:40.915Z,153.20
2017-12-25T16:05:08.487Z,115.50
2017-12-25T16:07:36.132Z,430.27
2017-12-25T16:10:03.751Z,145.10
2017-12-25T16:12:31.404Z,163.77
2017-12-25T16:14:59.010Z,394.87
2017-12-25T16:17:26.643Z,202.63
2017-12-25T16:19:54.235Z,170.23
2017-12-25T16:22:21.876Z,140.40
2017-12-25T16:24:49.516Z,149.17
2017-12-25T16:27:17.088Z,142.50
2017-12-25T16:29:44.661Z,141.87
2017-12-25T16:32:12.258Z,107.20
2017-12-25T16:34:39.826Z,96.37
2017-12-25T16:37:07.467Z,85.67
2017-12-25T16:39:35.038Z,55.17
2017-12-25T16:42:02.617Z,43.33
2017-12-25T16:44:30.246Z,48.13
2017-12-25T16:46:57.822Z,100.53
2017-12-25T16:49:25.394Z,93.80
2017-12-25T16:51:52.986Z,75.70
2017-12-25T16:54:20.559Z,58.83
2017-12-25T16:56:48.122Z,89.00
2017-12-25T16:59:15.682Z,96.67
2017-12-25T17:01:43.315Z,88.93
2017-12-25T17:04:10.995Z,79.33
2017-12-25T17:06:38.571Z,72.63
2017-12-25T17:09:06.195Z,78.23
2017-12-25T17:11:33.766Z,92.33
2017-12-25T17:14:01.357Z,121.30
2017-12-25T17:16:29.050Z,79.20
2017-12-25T17:18:56.624Z,160.53
2017-12-25T17:21:24.226Z,132.77
2017-12-25T17:23:52.047Z,115.63
2017-12-25T17:26:19.866Z,70.13
2017-12-25T17:28:47.455Z,72.83
2017-12-25T17:31:15.033Z,90.23
2017-12-25T17:33:42.627Z,87.33
2017-12-25T17:36:10.227Z,80.83
2017-12-25T17:38:37.954Z,186.40
2017-12-25T17:41:05.522Z,45.80
2017-12-25T17:43:33.090Z,51.57
2017-12-25T17:46:00.661Z,107.50
2017-12-25T17:48:28.292Z,109.17
2017-12-25T17:50:56.007Z,41.33
2017-12-25T17:53:23.754Z,42.27
2017-12-25T17:55:51.495Z,44.87
2017-12-25T17:58:19.201Z,127.43
2017-12-25T18:00:47.019Z,136.93
2017-12-25T18:03:14.627Z,107.73
2017-12-25T18:05:42.453Z,118.50
2017-12-25T18:08:10.117Z,134.27
2017-12-25T18:10:37.891Z,133.67
2017-12-25T18:13:05.615Z,102.93
2017-12-25T18:15:33.420Z,101.80
2017-12-25T18:18:01.004Z,137.30
2017-12-25T18:20:28.726Z,129.67
2017-12-25T18:22:56.443Z,135.93
2017-12-25T18:25:24.016Z,146.70
2017-12-25T18:27:51.626Z,170.40
2017-12-25T18:30:19.436Z,128.27
2017-12-25T18:32:47.033Z,196.17
2017-12-25T18:35:15.629Z,110.73
2017-12-25T18:37:43.394Z,91.60
2017-12-25T18:40:10.982Z,100.03
2017-12-25T18:42:38.566Z,119.37
2017-12-25T18:45:06.190Z,183.00
2017-12-25T18:47:33.963Z,181.53
2017-12-25T18:50:01.569Z,157.23
2017-12-25T18:52:29.344Z,130.73
2017-12-25T18:54:57.710Z,109.53
2017-12-25T18:57:25.298Z,106.67
2017-12-25T18:59:52.868Z,97.73
2017-12-25T19:02:20.674Z,86.43
2017-12-25T19:04:48.494Z,82.77
2017-12-25T19:07:16.312Z,89.50
2017-12-25T19:09:43.874Z,99.53
2017-12-25T19:12:11.546Z,75.40
2017-12-25T19:14:39.265Z,68.70
2017-12-25T19:17:07.084Z,62.27
2017-12-25T19:19:34.663Z,70.30
2017-12-25T19:22:02.240Z,84.57
2017-12-25T19:24:29.829Z,81.47
2017-12-25T19:26:57.453Z,71.07
2017-12-25T19:29:25.023Z,98.37
2017-12-25T19:31:52.668Z,59.70
2017-12-25T19:34:20.267Z,71.87
2017-12-25T19:36:47.852Z,81.30
2017-12-25T19:39:15.645Z,100.73
2017-12-25T19:41:43.631Z,94.23
2017-12-25T19:44:12.155Z,52.37
2017-12-25T19:46:39.734Z,52.93
2017-12-25T19:49:07.375Z,48.27
2017-12-25T19:51:34.953Z,94.47
2017-12-25T19:54:02.525Z,75.80
2017-12-25T19:56:30.167Z,77.17
2017-12-25T19:58:58.498Z,81.30
2017-12-25T20:01:26.078Z,83.60
2017-12-25T20:03:53.829Z,116.97
2017-12-25T20:06:21.417Z,212.90
2017-12-25T20:08:48.998Z,80.33
2017-12-25T20:11:16.570Z,44.07
2017-12-25T20:13:44.301Z,60.37
2017-12-25T20:16:11.870Z,66.17
2017-12-25T20:18:39.611Z,83.97
2017-12-25T20:21:07.246Z,56.80
2017-12-25T20:23:34.815Z,63.97
2017-12-25T20:26:02.399Z,110.13
2017-12-25T20:28:29.980Z,123.13
2017-12-25T20:30:57.822Z,92.57
2017-12-25T20:33:26.447Z,83.33
2017-12-25T20:35:54.023Z,57.37
2017-12-25T20:38:21.734Z,47.63
2017-12-25T20:40:49.291Z,49.57
2017-12-25T20:43:17.021Z,56.20
2017-12-25T20:45:44.838Z,58.53
2017-12-25T20:48:13.349Z,66.73
2017-12-25T20:50:40.971Z,61.17
2017-12-25T20:53:08.524Z,47.47
2017-12-25T20:55:36.279Z,58.47
2017-12-25T20:58:03.997Z,96.07
2017-12-25T21:00:31.580Z,92.20
2017-12-25T21:02:59.367Z,88.47
2017-12-25T21:05:26.942Z,118.87
2017-12-25T21:07:54.688Z,120.53
2017-12-25T21:10:22.303Z,102.40
2017-12-25T21:12:49.874Z,100.43
2017-12-25T21:15:17.860Z,70.80
2017-12-25T21:17:45.413Z,64.40
2017-12-25T21:20:12.973Z,93.30
2017-12-25T21:22:40.571Z,75.70
2017-12-25T21:25:08.134Z,60.50
2017-12-25T21:27:35.946Z,54.37
2017-12-25T21:30:03.765Z,64.93
2017-12-25T21:32:31.371Z,170.07
2017-12-25T21:34:58.951Z,105.00
2017-12-25T21:37:26.514Z,76.23
2017-12-25T21:39:54.142Z,101.43
2017-12-25T21:42:21.725Z,98.20
2017-12-25T21:44:49.454Z,124.83
2017-12-25T21:47:17.291Z,130.10
2017-12-25T21:49:45.112Z,97.07
2017-12-25T21:52:12.746Z,86.07
2017-12-25T21:54:40.847Z,94.00
2017-12-25T21:57:08.438Z,62.37
2017-12-25T21:59:36.014Z,78.47
2017-12-25T22:02:03.585Z,68.47
2017-12-25T22:04:31.417Z,122.33
2017-12-25T22:06:58.986Z,108.97
2017-12-25T22:09:26.549Z,88.70
2017-12-25T22:11:54.137Z,62.30
2017-12-25T22:14:21.711Z,54.63
2017-12-25T22:16:49.256Z,48.60
2017-12-25T22:19:16.825Z,37.13
2017-12-25T22:21:44.423Z,31.80
2017-12-25T22:24:12.017Z,38.77
2017-12-25T22:26:39.779Z,66.07
2017-12-25T22:29:07.339Z,44.10
2017-12-25T22:31:35.114Z,38.53
2017-12-25T22:34:02.677Z,26.90
2017-12-25T22:36:30.223Z,112.40
2017-12-25T22:38:57.968Z,56.07
2017-12-25T22:41:25.539Z,35.47
2017-12-25T22:43:53.099Z,44.53
2017-12-25T22:46:20.922Z,43.83
2017-12-25T22:48:48.496Z,56.23
2017-12-25T22:51:16.066Z,52.43
2017-12-25T22:53:43.876Z,55.70
2017-12-25T22:56:11.442Z,55.40
2017-12-25T22:58:38.999Z,51.53
2017-12-25T23:01:06.710Z,46.47
2017-12-25T23:03:34.424Z,43.50
2017-12-25T23:06:02.057Z,40.73
2017-12-25T23:08:29.783Z,45.03
2017-12-25T23:10:57.335Z,46.97
2017-12-25T23:13:24.891Z,50.03
2017-12-25T23:15:52.461Z,36.00
2017-12-25T23:18:20.025Z,28.10
2017-12-25T23:20:47.680Z,23.93
2017-12-25T23:23:15.275Z,21.50
2017-12-25T23:25:42.858Z,23.67
2017-12-25T23:28:10.462Z,41.03
2017-12-25T23:30:38.031Z,44.73
2017-12-25T23:33:05.602Z,44.23
2017-12-25T23:35:33.169Z,41.50
2017-12-25T23:38:00.746Z,32.80
2017-12-25T23:40:28.310Z,28.70
2017-12-25T23:42:55.877Z,23.10
2017-12-25T23:45:23.649Z,22.87
2017-12-25T23:47:51.465Z,18.90
2017-12-25T23:50:19.187Z,20.27
2017-12-25T23:52:47.006Z,18.73
2017-12-25T23:55:14.578Z,19.90
2017-12-25T23:57:42.134Z,17.93
